Aérodrome :







RETROUVEZ-NOUS SUR...

 
LOGIN :

S'inscrire | Disclaimer

   EN    FR    IT 

 









Légende :    VFR   VFR Marginal   IFR   IFR Intensif   IFR Très Intensif
Visi : 
Plafond : 
>= 8 km
>= 3000ft
5 à 8 km
1000 à 3000 ft
1500m à 5 km
500 à 1000 ft
800 à 1500m
200 à 500 ft
< 800m
< 200 ft
Symboles :   Orages  Brouillard  Fortes neiges  Fortes précipitations  Vent > 20 kt






- Altitude de l'aérodrome : 172 ft
- Code IATA : YYY


CYYY - Mont Joli

DERNIER METAR :
  • 211500Z 23016KT 30SM SCT023 M12/M19 A3023 RMK SC3 SLP242

METARs EXPIRÉS :
  • 211400Z 23014G21KT 30SM SCT030 M13/M20 A3024 RMK SC3 SLP247
  • 211336Z 23013G19KT 10SM -SN BKN020 M14/M19 A3024 RMK SC6 SLP249
  • 211304Z 21012KT 2SM -SN OVC020 M15/M19 A3025 RMK SC8 SLP252

TAF TAF CYYY
Valide du 21 à 14h jusqu'au 22 à 02h UTC


211343Z 2114/2202 21012KT P6SM BKN030
TEMPO 2114/2116 2SM -SN OVC020
FM211600 21010KT P6SM BKN030 RMK NXT FCST BY 212000Z



MET'MAP, la Météo Aéronautique d'un coup d'oeil ! - Copyright ORBIFLY Décembre 2007 - Disclaimer

ORBIFLY MET'MAP TEAM :

Programmation & Développement : Alexandra Zaïnal
Sur une idée originale de : Baudouin d'Aumeries
Assistance à la programmation : Marc-Olivier Méhu
Soutien technique & logistique : Manuel Goepfert

Contact : metmap@orbifly.com




SOURCES & CREDITS :

   NOAA